AAL2252 KSAT-KPHX
Flight info
| Callsign | AAL2252 |
|---|---|
| Flight time | N/A |
| Altitude | 32000 |
| Route | ALISS7 ALISS FST ELP DRRVR PINNG1 |
| Aircraft | A319/M-VGDW/C |
Departure
| Time | 2026-05-04 02:52 |
|---|---|
| Airport | San Antonio International Airport (KSAT) |
Arrival
| Time | N/A |
|---|---|
| Airport | Phoenix Sky Harbor International Airport (KPHX) |
| Time | Latitude | Longitude | Altitude | Speed | Heading |
|---|---|---|---|---|---|
| 2026-05-04 02:31 | 29.52881 | -98.47147 | 817 ft | 0 kts | 285° |
| 2026-05-04 02:41 | 29.52880 | -98.47145 | 818 ft | 1 kts | 285° |
| 2026-05-04 02:41 | 29.52876 | -98.47128 | 818 ft | 2 kts | 284° |
| 2026-05-04 02:41 | 29.52873 | -98.47111 | 818 ft | 2 kts | 285° |
| 2026-05-04 02:41 | 29.52868 | -98.47095 | 818 ft | 2 kts | 301° |
| 2026-05-04 02:42 | 29.52858 | -98.47083 | 818 ft | 2 kts | 328° |
| 2026-05-04 02:42 | 29.52844 | -98.47076 | 818 ft | 2 kts | 355° |
| 2026-05-04 02:42 | 29.52829 | -98.47079 | 818 ft | 2 kts | 22° |
| 2026-05-04 02:42 | 29.52820 | -98.47084 | 818 ft | 0 kts | 40° |
| 2026-05-04 02:43 | 29.52815 | -98.47089 | 818 ft | 0 kts | 43° |
| 2026-05-04 02:45 | 29.52826 | -98.47078 | 817 ft | 5 kts | 43° |
| 2026-05-04 02:45 | 29.52857 | -98.47031 | 817 ft | 9 kts | 71° |
| 2026-05-04 02:46 | 29.52898 | -98.46983 | 817 ft | 9 kts | 345° |
| 2026-05-04 02:46 | 29.52957 | -98.47049 | 817 ft | 13 kts | 312° |
| 2026-05-04 02:46 | 29.53027 | -98.47140 | 817 ft | 16 kts | 312° |
| 2026-05-04 02:46 | 29.53113 | -98.47250 | 817 ft | 20 kts | 311° |
| 2026-05-04 02:47 | 29.53208 | -98.47373 | 817 ft | 21 kts | 311° |
| 2026-05-04 02:47 | 29.53308 | -98.47500 | 817 ft | 21 kts | 311° |
| 2026-05-04 02:47 | 29.53406 | -98.47626 | 818 ft | 21 kts | 311° |
| 2026-05-04 02:47 | 29.53505 | -98.47756 | 817 ft | 21 kts | 313° |
| 2026-05-04 02:48 | 29.53607 | -98.47886 | 817 ft | 21 kts | 312° |
| 2026-05-04 02:48 | 29.53708 | -98.48016 | 817 ft | 22 kts | 312° |
| 2026-05-04 02:48 | 29.53811 | -98.48148 | 818 ft | 22 kts | 311° |
| 2026-05-04 02:48 | 29.53914 | -98.48281 | 817 ft | 22 kts | 313° |
| 2026-05-04 02:49 | 29.54016 | -98.48412 | 817 ft | 20 kts | 310° |
| 2026-05-04 02:49 | 29.54112 | -98.48538 | 818 ft | 21 kts | 313° |
| 2026-05-04 02:49 | 29.54181 | -98.48608 | 818 ft | 6 kts | 5° |
| 2026-05-04 02:49 | 29.54184 | -98.48608 | 817 ft | 0 kts | 7° |
| 2026-05-04 02:50 | 29.54188 | -98.48608 | 817 ft | 3 kts | 7° |
| 2026-05-04 02:51 | 29.54241 | -98.48574 | 817 ft | 12 kts | 39° |
| 2026-05-04 02:51 | 29.54237 | -98.48507 | 817 ft | 10 kts | 131° |
| 2026-05-04 02:51 | 29.54087 | -98.48313 | 818 ft | 68 kts | 130° |
| 2026-05-04 02:51 | 29.53610 | -98.47696 | 818 ft | 134 kts | 130° |
| 2026-05-04 02:52 | 29.52941 | -98.46796 | 1168 ft | 157 kts | 127° |
| 2026-05-04 02:52 | 29.52265 | -98.45761 | 1759 ft | 164 kts | 129° |
| 2026-05-04 02:52 | 29.51650 | -98.44729 | 2482 ft | 163 kts | 112° |
| 2026-05-04 02:52 | 29.51490 | -98.43343 | 2723 ft | 194 kts | 81° |
| 2026-05-04 02:53 | 29.52179 | -98.41906 | 2953 ft | 225 kts | 45° |
| 2026-05-04 02:53 | 29.53641 | -98.41012 | 3238 ft | 254 kts | 13° |
| 2026-05-04 02:53 | 29.55448 | -98.41053 | 3518 ft | 271 kts | 345° |
| 2026-05-04 02:53 | 29.57220 | -98.41840 | 3982 ft | 273 kts | 335° |
| 2026-05-04 02:54 | 29.58934 | -98.42788 | 4484 ft | 276 kts | 334° |
| 2026-05-04 02:54 | 29.60659 | -98.43771 | 4987 ft | 278 kts | 334° |
| 2026-05-04 02:54 | 29.62387 | -98.44758 | 5487 ft | 280 kts | 334° |
| 2026-05-04 02:54 | 29.64027 | -98.45950 | 5994 ft | 284 kts | 316° |
| 2026-05-04 02:55 | 29.66522 | -98.49458 | 7411 ft | 285 kts | 306° |
| 2026-05-04 02:55 | 29.67750 | -98.51302 | 8118 ft | 294 kts | 307° |
| 2026-05-04 02:55 | 29.69008 | -98.53127 | 9160 ft | 294 kts | 308° |
| 2026-05-04 02:56 | 29.70295 | -98.54947 | 10110 ft | 296 kts | 308° |
| 2026-05-04 02:56 | 29.71607 | -98.56776 | 10819 ft | 306 kts | 308° |
| 2026-05-04 02:56 | 29.73021 | -98.58734 | 11282 ft | 325 kts | 308° |
| 2026-05-04 02:56 | 29.74493 | -98.60761 | 11859 ft | 338 kts | 309° |
| 2026-05-04 02:57 | 29.76006 | -98.62834 | 12719 ft | 342 kts | 308° |
| 2026-05-04 02:57 | 29.77538 | -98.64930 | 13573 ft | 345 kts | 308° |
| 2026-05-04 02:57 | 29.79109 | -98.67087 | 14395 ft | 348 kts | 307° |
| 2026-05-04 02:57 | 29.80663 | -98.69228 | 15185 ft | 351 kts | 306° |
| 2026-05-04 02:58 | 29.82244 | -98.71403 | 15965 ft | 354 kts | 306° |
| 2026-05-04 02:58 | 29.83830 | -98.73582 | 16722 ft | 357 kts | 306° |
| 2026-05-04 02:58 | 29.85432 | -98.75784 | 17464 ft | 359 kts | 305° |
| 2026-05-04 02:58 | 29.87045 | -98.78001 | 18190 ft | 361 kts | 305° |
| 2026-05-04 02:59 | 29.88674 | -98.80241 | 18907 ft | 363 kts | 304° |
| 2026-05-04 02:59 | 29.90277 | -98.82485 | 19600 ft | 364 kts | 304° |
| 2026-05-04 02:59 | 29.91861 | -98.84728 | 20274 ft | 366 kts | 303° |
| 2026-05-04 02:59 | 29.93490 | -98.87036 | 20952 ft | 367 kts | 303° |
| 2026-05-04 03:00 | 29.95097 | -98.89312 | 21597 ft | 368 kts | 303° |
| 2026-05-04 03:00 | 29.96713 | -98.91599 | 22225 ft | 369 kts | 303° |
| 2026-05-04 03:00 | 29.98331 | -98.93888 | 22837 ft | 370 kts | 303° |
| 2026-05-04 03:00 | 29.99955 | -98.96185 | 23428 ft | 371 kts | 303° |
| 2026-05-04 03:01 | 30.01598 | -98.98510 | 24007 ft | 372 kts | 303° |
| 2026-05-04 03:01 | 30.03239 | -99.00830 | 24564 ft | 373 kts | 303° |
| 2026-05-04 03:01 | 30.04884 | -99.03160 | 25099 ft | 374 kts | 303° |
| 2026-05-04 03:01 | 30.06524 | -99.05486 | 25586 ft | 375 kts | 303° |
| 2026-05-04 03:02 | 30.08196 | -99.07861 | 25850 ft | 383 kts | 303° |
| 2026-05-04 03:02 | 30.09778 | -99.10333 | 26199 ft | 383 kts | 298° |
| 2026-05-04 03:02 | 30.11082 | -99.13043 | 26666 ft | 381 kts | 291° |
| 2026-05-04 03:02 | 30.12065 | -99.15881 | 27135 ft | 378 kts | 285° |
| 2026-05-04 03:03 | 30.12806 | -99.18803 | 27580 ft | 378 kts | 283° |
| 2026-05-04 03:03 | 30.13505 | -99.21744 | 27984 ft | 380 kts | 283° |
| 2026-05-04 03:03 | 30.14200 | -99.24718 | 28238 ft | 385 kts | 283° |
| 2026-05-04 03:03 | 30.14897 | -99.27705 | 28582 ft | 387 kts | 283° |
| 2026-05-04 03:04 | 30.15587 | -99.30666 | 29111 ft | 384 kts | 283° |
| 2026-05-04 03:04 | 30.16277 | -99.33633 | 29691 ft | 380 kts | 283° |
| 2026-05-04 03:04 | 30.16967 | -99.36602 | 30239 ft | 376 kts | 283° |
| 2026-05-04 03:04 | 30.17648 | -99.39532 | 30742 ft | 373 kts | 284° |
| 2026-05-04 03:05 | 30.18316 | -99.42416 | 31213 ft | 370 kts | 284° |
| 2026-05-04 03:05 | 30.18983 | -99.45296 | 31669 ft | 368 kts | 284° |
| 2026-05-04 03:05 | 30.19643 | -99.48146 | 31950 ft | 366 kts | 284° |
| 2026-05-04 03:06 | 30.20979 | -99.53917 | 31986 ft | 376 kts | 284° |
| 2026-05-04 03:06 | 30.22341 | -99.59820 | 31982 ft | 376 kts | 284° |
| 2026-05-04 03:07 | 30.23689 | -99.65675 | 31979 ft | 376 kts | 284° |
| 2026-05-04 03:07 | 30.25038 | -99.71581 | 31974 ft | 376 kts | 284° |
| 2026-05-04 03:08 | 30.26376 | -99.77438 | 31972 ft | 376 kts | 284° |
| 2026-05-04 03:08 | 30.27729 | -99.83364 | 31972 ft | 376 kts | 284° |
| 2026-05-04 03:09 | 30.29068 | -99.89241 | 31972 ft | 376 kts | 284° |
| 2026-05-04 03:09 | 30.30403 | -99.95110 | 31972 ft | 376 kts | 284° |
| 2026-05-04 03:10 | 30.31743 | -100.01017 | 31972 ft | 376 kts | 284° |
| 2026-05-04 03:10 | 30.33076 | -100.06904 | 31972 ft | 376 kts | 284° |
| 2026-05-04 03:11 | 30.34407 | -100.12793 | 31973 ft | 376 kts | 284° |
| 2026-05-04 03:11 | 30.35725 | -100.18640 | 31976 ft | 376 kts | 284° |
| 2026-05-04 03:12 | 30.37055 | -100.24551 | 31981 ft | 376 kts | 284° |
| 2026-05-04 03:12 | 30.38382 | -100.30465 | 31988 ft | 376 kts | 284° |
| 2026-05-04 03:13 | 30.39702 | -100.36361 | 31994 ft | 376 kts | 284° |
| 2026-05-04 03:13 | 30.41018 | -100.42245 | 32000 ft | 376 kts | 284° |
| 2026-05-04 03:14 | 30.42330 | -100.48131 | 32004 ft | 376 kts | 284° |
| 2026-05-04 03:14 | 30.43638 | -100.54012 | 32007 ft | 376 kts | 284° |
| 2026-05-04 03:15 | 30.44944 | -100.59898 | 32008 ft | 376 kts | 284° |
| 2026-05-04 03:15 | 30.46247 | -100.65788 | 32010 ft | 376 kts | 283° |
| 2026-05-04 03:16 | 30.47538 | -100.71658 | 32008 ft | 376 kts | 283° |
| 2026-05-04 03:16 | 30.48831 | -100.77541 | 32008 ft | 376 kts | 283° |
| 2026-05-04 03:17 | 30.50124 | -100.83428 | 32007 ft | 376 kts | 283° |
| 2026-05-04 03:17 | 30.51408 | -100.89285 | 32005 ft | 377 kts | 283° |
| 2026-05-04 03:18 | 30.52708 | -100.95228 | 32001 ft | 379 kts | 283° |
| 2026-05-04 03:18 | 30.53999 | -101.01142 | 31995 ft | 380 kts | 283° |
| 2026-05-04 03:19 | 30.55304 | -101.07130 | 31989 ft | 382 kts | 283° |
| 2026-05-04 03:19 | 30.56601 | -101.13099 | 31985 ft | 382 kts | 283° |
| 2026-05-04 03:20 | 30.57898 | -101.19086 | 32081 ft | 381 kts | 283° |
| 2026-05-04 03:20 | 30.59187 | -101.25046 | 32092 ft | 381 kts | 283° |
| 2026-05-04 03:21 | 30.60477 | -101.31026 | 32093 ft | 381 kts | 283° |
| 2026-05-04 03:21 | 30.61766 | -101.37015 | 32093 ft | 381 kts | 283° |
| 2026-05-04 03:22 | 30.63056 | -101.43022 | 32093 ft | 381 kts | 284° |
| 2026-05-04 03:22 | 30.64336 | -101.48997 | 32092 ft | 381 kts | 284° |
| 2026-05-04 03:23 | 30.65625 | -101.55029 | 32092 ft | 381 kts | 284° |
| 2026-05-04 03:23 | 30.66897 | -101.60996 | 32092 ft | 381 kts | 284° |
| 2026-05-04 03:24 | 30.68174 | -101.67006 | 32094 ft | 381 kts | 283° |
| 2026-05-04 03:24 | 30.69439 | -101.72994 | 32093 ft | 381 kts | 283° |
| 2026-05-04 03:25 | 30.70705 | -101.78988 | 32093 ft | 381 kts | 283° |
| 2026-05-04 03:25 | 30.71968 | -101.84978 | 32093 ft | 381 kts | 283° |
| 2026-05-04 03:26 | 30.73230 | -101.90967 | 32093 ft | 381 kts | 283° |
| 2026-05-04 03:26 | 30.74483 | -101.96932 | 32093 ft | 381 kts | 283° |
| 2026-05-04 03:27 | 30.75739 | -102.02918 | 32092 ft | 381 kts | 283° |
| 2026-05-04 03:27 | 30.76997 | -102.08935 | 32085 ft | 381 kts | 283° |
| 2026-05-04 03:28 | 30.78252 | -102.14948 | 32072 ft | 381 kts | 283° |
| 2026-05-04 03:28 | 30.79503 | -102.20963 | 32055 ft | 381 kts | 283° |
| 2026-05-04 03:29 | 30.80749 | -102.26965 | 32038 ft | 381 kts | 283° |
| 2026-05-04 03:29 | 30.81994 | -102.32977 | 32027 ft | 382 kts | 283° |
| 2026-05-04 03:30 | 30.83237 | -102.38995 | 32022 ft | 382 kts | 283° |
| 2026-05-04 03:30 | 30.84474 | -102.44997 | 32020 ft | 382 kts | 283° |
| 2026-05-04 03:31 | 30.85712 | -102.51017 | 32019 ft | 382 kts | 283° |
| 2026-05-04 03:31 | 30.86926 | -102.56937 | 32018 ft | 382 kts | 283° |
| 2026-05-04 03:32 | 30.88165 | -102.62991 | 32018 ft | 382 kts | 283° |
| 2026-05-04 03:32 | 30.89392 | -102.69011 | 32020 ft | 381 kts | 283° |
| 2026-05-04 03:33 | 30.90619 | -102.75048 | 32019 ft | 380 kts | 283° |
| 2026-05-04 03:33 | 30.91834 | -102.81023 | 32019 ft | 380 kts | 283° |
| 2026-05-04 03:34 | 30.93050 | -102.87011 | 32019 ft | 379 kts | 282° |
| 2026-05-04 03:34 | 30.94261 | -102.93002 | 32019 ft | 378 kts | 282° |
| 2026-05-04 03:35 | 30.95578 | -102.98955 | 32019 ft | 378 kts | 285° |
| 2026-05-04 03:35 | 30.97179 | -103.04837 | 32019 ft | 379 kts | 286° |
| 2026-05-04 03:36 | 30.98797 | -103.10735 | 32019 ft | 379 kts | 286° |
| 2026-05-04 03:36 | 31.00413 | -103.16621 | 32019 ft | 378 kts | 286° |
| 2026-05-04 03:37 | 31.02013 | -103.22459 | 32019 ft | 377 kts | 285° |
| 2026-05-04 03:37 | 31.03612 | -103.28302 | 32016 ft | 376 kts | 285° |
| 2026-05-04 03:38 | 31.05207 | -103.34139 | 32010 ft | 375 kts | 285° |
| 2026-05-04 03:38 | 31.06792 | -103.39947 | 32004 ft | 375 kts | 285° |
| 2026-05-04 03:39 | 31.08377 | -103.45771 | 31998 ft | 375 kts | 285° |
| 2026-05-04 03:39 | 31.09959 | -103.51590 | 31993 ft | 375 kts | 285° |
| 2026-05-04 03:40 | 31.11555 | -103.57392 | 31992 ft | 375 kts | 286° |
| 2026-05-04 03:40 | 31.13154 | -103.63227 | 31991 ft | 375 kts | 286° |
| 2026-05-04 03:41 | 31.14728 | -103.69034 | 31991 ft | 375 kts | 285° |
| 2026-05-04 03:41 | 31.16305 | -103.74886 | 31990 ft | 375 kts | 285° |
| 2026-05-04 03:42 | 31.17873 | -103.80714 | 31990 ft | 375 kts | 285° |
| 2026-05-04 03:42 | 31.19441 | -103.86557 | 31990 ft | 375 kts | 285° |
| 2026-05-04 03:43 | 31.20998 | -103.92365 | 31990 ft | 375 kts | 285° |
| 2026-05-04 03:43 | 31.22564 | -103.98219 | 31990 ft | 375 kts | 285° |
| 2026-05-04 03:44 | 31.24117 | -104.04037 | 31991 ft | 375 kts | 285° |
| 2026-05-04 03:44 | 31.25670 | -104.09867 | 31990 ft | 375 kts | 285° |
| 2026-05-04 03:45 | 31.27222 | -104.15706 | 31990 ft | 375 kts | 285° |
| 2026-05-04 03:45 | 31.28773 | -104.21551 | 31991 ft | 375 kts | 285° |
| 2026-05-04 03:46 | 31.30323 | -104.27406 | 31991 ft | 375 kts | 285° |
| 2026-05-04 03:46 | 31.31859 | -104.33220 | 31991 ft | 375 kts | 285° |
| 2026-05-04 03:47 | 31.33396 | -104.39050 | 31990 ft | 374 kts | 285° |
| 2026-05-04 03:47 | 31.34941 | -104.44917 | 31991 ft | 374 kts | 285° |
| 2026-05-04 03:48 | 31.36479 | -104.50775 | 31993 ft | 374 kts | 285° |
| 2026-05-04 03:48 | 31.38006 | -104.56599 | 31996 ft | 374 kts | 285° |
| 2026-05-04 03:49 | 31.39534 | -104.62440 | 32000 ft | 374 kts | 285° |
| 2026-05-04 03:49 | 31.41062 | -104.68308 | 32005 ft | 374 kts | 285° |
| 2026-05-04 03:50 | 31.42580 | -104.74161 | 32006 ft | 374 kts | 285° |
| 2026-05-04 03:50 | 31.44094 | -104.79994 | 32006 ft | 374 kts | 285° |
| 2026-05-04 03:51 | 31.45621 | -104.85883 | 32006 ft | 374 kts | 285° |
| 2026-05-04 03:51 | 31.47125 | -104.91694 | 32006 ft | 375 kts | 285° |
| 2026-05-04 03:52 | 31.48646 | -104.97576 | 32006 ft | 376 kts | 284° |
| 2026-05-04 03:52 | 31.50175 | -105.03504 | 32006 ft | 378 kts | 284° |
| 2026-05-04 03:53 | 31.51705 | -105.09451 | 32006 ft | 380 kts | 284° |
| 2026-05-04 03:53 | 31.53244 | -105.15450 | 32006 ft | 382 kts | 284° |
| 2026-05-04 03:54 | 31.54784 | -105.21468 | 32006 ft | 382 kts | 284° |
| 2026-05-04 03:54 | 31.56311 | -105.27444 | 32006 ft | 382 kts | 284° |
| 2026-05-04 03:55 | 31.57841 | -105.33450 | 32006 ft | 382 kts | 284° |
| 2026-05-04 03:55 | 31.59367 | -105.39445 | 32006 ft | 382 kts | 284° |
| 2026-05-04 03:56 | 31.60888 | -105.45433 | 32006 ft | 382 kts | 284° |
| 2026-05-04 03:56 | 31.62407 | -105.51427 | 32006 ft | 382 kts | 284° |
| 2026-05-04 03:57 | 31.63921 | -105.57416 | 32006 ft | 382 kts | 284° |
| 2026-05-04 03:57 | 31.65446 | -105.63461 | 32006 ft | 382 kts | 284° |
| 2026-05-04 03:58 | 31.67704 | -105.72460 | 32007 ft | 382 kts | 283° |
| 2026-05-04 03:58 | 31.69215 | -105.78491 | 32007 ft | 382 kts | 283° |
| 2026-05-04 03:59 | 31.70711 | -105.84468 | 32008 ft | 382 kts | 283° |
| 2026-05-04 03:59 | 31.72215 | -105.90484 | 32009 ft | 382 kts | 283° |
| 2026-05-04 04:00 | 31.73707 | -105.96469 | 32010 ft | 382 kts | 283° |
| 2026-05-04 04:00 | 31.75209 | -106.02502 | 32011 ft | 382 kts | 283° |
| 2026-05-04 04:01 | 31.76693 | -106.08472 | 32012 ft | 382 kts | 283° |
| 2026-05-04 04:01 | 31.78190 | -106.14497 | 32012 ft | 382 kts | 283° |
| 2026-05-04 04:02 | 31.79671 | -106.20486 | 32013 ft | 382 kts | 283° |
| 2026-05-04 04:02 | 31.81112 | -106.26528 | 32014 ft | 381 kts | 281° |
| 2026-05-04 04:03 | 31.82121 | -106.32641 | 32014 ft | 380 kts | 277° |
| 2026-05-04 04:03 | 31.82931 | -106.38781 | 32016 ft | 380 kts | 277° |
| 2026-05-04 04:04 | 31.83734 | -106.44915 | 32019 ft | 380 kts | 277° |
| 2026-05-04 04:04 | 31.84536 | -106.51080 | 32024 ft | 379 kts | 277° |
| 2026-05-04 04:05 | 31.85335 | -106.57233 | 32029 ft | 380 kts | 277° |
| 2026-05-04 04:05 | 31.86135 | -106.63435 | 32032 ft | 379 kts | 277° |
| 2026-05-04 04:06 | 31.86926 | -106.69604 | 32035 ft | 379 kts | 277° |
| 2026-05-04 04:06 | 31.87712 | -106.75753 | 32035 ft | 379 kts | 277° |
| 2026-05-04 04:07 | 31.88490 | -106.81854 | 32034 ft | 379 kts | 277° |
| 2026-05-04 04:07 | 31.89278 | -106.88045 | 32035 ft | 380 kts | 276° |
| 2026-05-04 04:08 | 31.90057 | -106.94198 | 32036 ft | 382 kts | 276° |
| 2026-05-04 04:08 | 31.90843 | -107.00423 | 32036 ft | 383 kts | 276° |
| 2026-05-04 04:09 | 31.91623 | -107.06639 | 32038 ft | 384 kts | 276° |
| 2026-05-04 04:09 | 31.92398 | -107.12859 | 32040 ft | 384 kts | 276° |
| 2026-05-04 04:10 | 31.93175 | -107.19099 | 32041 ft | 384 kts | 276° |
| 2026-05-04 04:10 | 31.93947 | -107.25324 | 32043 ft | 384 kts | 276° |
| 2026-05-04 04:11 | 31.94719 | -107.31591 | 32043 ft | 383 kts | 276° |
| 2026-05-04 04:11 | 31.95485 | -107.37811 | 32042 ft | 384 kts | 276° |
| 2026-05-04 04:12 | 31.96251 | -107.44066 | 32038 ft | 383 kts | 276° |
| 2026-05-04 04:12 | 31.97016 | -107.50337 | 32034 ft | 384 kts | 276° |
| 2026-05-04 04:13 | 31.97774 | -107.56560 | 32030 ft | 384 kts | 275° |
| 2026-05-04 04:13 | 31.98533 | -107.62826 | 32032 ft | 385 kts | 275° |
| 2026-05-04 04:14 | 31.99284 | -107.69094 | 32035 ft | 385 kts | 275° |
| 2026-05-04 04:14 | 32.00033 | -107.75350 | 32035 ft | 384 kts | 275° |
| 2026-05-04 04:15 | 32.00781 | -107.81619 | 32035 ft | 385 kts | 275° |
| 2026-05-04 04:15 | 32.01524 | -107.87869 | 32035 ft | 385 kts | 275° |
| 2026-05-04 04:16 | 32.02264 | -107.94123 | 32035 ft | 385 kts | 275° |
| 2026-05-04 04:16 | 32.03000 | -108.00362 | 32034 ft | 384 kts | 275° |
| 2026-05-04 04:17 | 32.03737 | -108.06634 | 32035 ft | 384 kts | 275° |
| 2026-05-04 04:17 | 32.04470 | -108.12909 | 32037 ft | 385 kts | 275° |
| 2026-05-04 04:18 | 32.05196 | -108.19151 | 32041 ft | 384 kts | 275° |
| 2026-05-04 04:18 | 32.05922 | -108.25409 | 32045 ft | 384 kts | 275° |
| 2026-05-04 04:19 | 32.06640 | -108.31634 | 32049 ft | 384 kts | 275° |
| 2026-05-04 04:19 | 32.07358 | -108.37887 | 32047 ft | 384 kts | 275° |